Jurong, China
Current Conditions -  °F | °C
As of 9:00 AM on Tuesday 25 Nov 2014 (Local Time) from ZSNJ Reporting Station
Light Rain Light Rain  
Wind Chill: 52°   Ceiling: 800
Heat Index: 52°   Visibility: 0.87mi
Dew Point: 50°   Wind: 4mph
Humidity: 94%   Direction: 40°NE
Pressure: 30.12"   Gusts: NA
Location:  31.93°N, 119.17°E
Report Text: ZSNJ 250100Z 04002MPS 010V070 1400 R06/1600U R07/1600N -RABRBKN008 OVC033 11/10 Q1020 BECMG TL0130 1500 BR
Loading
Personal Weather Stations






























Interactive Weather Map New forecast layout! Learn more

10-Day Weather Forecast

Advertisements
Track Severe Weather on mobile